createdAt,value
2023-05-19T04:23:39.509Z,101882.81
2023-05-19T05:05:25.443Z,101879.94
2023-05-19T05:10:17.802Z,101880.06
2023-05-19T05:15:12.942Z,101867.66
2023-05-19T05:20:06.959Z,101860.38
2023-05-19T05:25:02.957Z,101831.81
2023-05-19T05:29:56.429Z,101859.44
2023-05-19T05:34:50.623Z,101850.50
2023-05-19T05:39:43.109Z,101815.81
2023-05-19T05:44:36.779Z,101861.72
2023-05-19T05:49:37.036Z,101801.25
2023-05-19T05:54:33.268Z,101857.63
2023-05-19T05:59:27.714Z,101855.09
2023-05-19T06:04:21.313Z,101856.81
2023-05-19T06:09:13.698Z,101832.38
2023-05-19T06:14:08.422Z,101849.41
2023-05-19T06:19:41.999Z,101819.97
2023-05-19T06:24:34.445Z,101810.19
2023-05-19T06:29:27.965Z,101821.19
2023-05-19T06:34:22.819Z,101824.94
2023-05-19T06:39:15.878Z,101820.31
2023-05-19T06:44:11.269Z,101830.03
2023-05-19T06:49:05.209Z,101802.75
2023-05-19T06:54:04.197Z,101825.63
2023-05-19T06:58:56.538Z,101796.81
2023-05-19T07:03:55.628Z,101842.38
2023-05-19T07:08:51.651Z,101858.31
2023-05-19T07:13:44.697Z,101842.59
2023-05-19T07:18:41.501Z,101848.63
2023-05-19T07:23:35.809Z,101817.53
2023-05-19T07:28:27.807Z,101773.38
2023-05-19T07:33:21.559Z,101843.69
2023-05-19T07:38:14.767Z,101830.78
2023-05-19T07:43:07.042Z,101846.84
2023-05-19T07:48:01.463Z,101791.31
2023-05-19T07:52:55.271Z,101767.25
2023-05-19T07:57:51.992Z,101789.31
2023-05-19T08:02:47.082Z,101767.56
2023-05-19T08:07:39.992Z,101826.84
2023-05-19T08:12:33.590Z,101806.13
2023-05-19T08:17:26.611Z,101787.06
2023-05-19T08:22:20.203Z,101742.16
2023-05-19T08:27:13.140Z,101808.72
2023-05-19T08:32:05.759Z,101790.56
2023-05-19T08:36:58.149Z,101784.72
2023-05-19T08:41:50.476Z,101776.28
2023-05-19T08:46:43.271Z,101783.19
2023-05-19T08:52:00.612Z,101777.16
2023-05-19T08:56:54.727Z,101779.81
2023-05-19T09:01:51.804Z,101708.38
2023-05-19T09:06:45.917Z,101774.25
2023-05-19T09:11:39.304Z,101774.31
2023-05-19T09:16:34.321Z,101758.03
2023-05-19T09:21:33.348Z,101752.47
2023-05-19T09:26:36.650Z,101747.09
2023-05-19T09:31:34.226Z,101728.38
2023-05-19T09:36:26.456Z,101675.06
2023-05-19T09:41:20.200Z,101711.06
2023-05-19T09:46:14.491Z,101724.97
2023-05-19T09:51:10.502Z,101682.91
2023-05-19T09:56:04.125Z,101704.69
2023-05-19T10:00:56.690Z,101724.44
2023-05-19T10:05:50.473Z,101712.59
2023-05-19T10:10:42.903Z,101705.25
2023-05-19T10:21:37.772Z,101706.53
2023-05-19T10:26:32.539Z,101698.16
2023-05-19T10:31:24.741Z,101703.16
2023-05-19T10:36:21.445Z,101698.31
2023-05-19T10:41:17.498Z,101700.13
2023-05-19T10:46:09.499Z,101701.34
2023-05-19T10:51:01.851Z,101687.66
2023-05-19T10:56:08.630Z,101683.28
2023-05-19T11:01:01.628Z,101684.00
2023-05-19T11:06:14.805Z,101681.81
2023-05-19T11:11:34.890Z,101674.09
2023-05-19T11:16:27.477Z,101679.09
2023-05-19T11:21:22.708Z,101670.28
2023-05-19T11:26:14.948Z,101674.19
2023-05-19T11:31:10.656Z,101660.53
2023-05-19T11:36:05.280Z,101658.09
2023-05-19T11:41:05.918Z,101642.47
2023-05-19T11:45:58.151Z,101656.50
2023-05-19T11:50:53.594Z,101650.28
2023-05-19T11:55:47.370Z,101644.25
2023-05-19T12:00:41.455Z,101632.47
2023-05-19T12:05:42.893Z,101639.53
2023-05-19T12:10:37.019Z,101626.13
2023-05-19T12:15:30.181Z,101617.78
2023-05-19T12:20:24.237Z,101623.72
2023-05-19T12:25:20.726Z,101610.59
2023-05-19T12:30:17.348Z,101604.44
2023-05-19T12:35:12.013Z,101593.69
2023-05-19T12:40:07.067Z,101592.31
2023-05-19T12:45:00.595Z,101595.00
2023-05-19T12:49:58.496Z,101586.59
2023-05-19T12:55:10.179Z,101597.19
2023-05-19T13:00:08.085Z,101589.41
2023-05-19T13:05:00.745Z,101574.06
2023-05-19T13:10:04.160Z,101576.78
2023-05-19T13:14:57.876Z,101568.69
2023-05-19T13:19:52.855Z,101572.22
2023-05-19T13:24:48.325Z,101566.50
2023-05-19T13:29:41.911Z,101560.34
2023-05-19T13:34:36.452Z,101557.81
2023-05-19T13:39:29.599Z,101548.41
2023-05-19T13:44:21.812Z,101546.47
2023-05-19T13:49:13.851Z,101548.47
2023-05-19T13:54:06.144Z,101538.31
2023-05-19T13:58:58.092Z,101546.63
2023-05-19T14:03:50.269Z,101532.41
2023-05-19T14:08:43.408Z,101527.66
2023-05-19T14:13:37.296Z,101519.09
2023-05-19T14:18:33.641Z,101527.56
2023-05-19T14:23:26.797Z,101519.00
2023-05-19T14:28:26.756Z,101519.34
2023-05-19T14:33:21.665Z,101519.38
2023-05-19T14:38:14.178Z,101516.38
2023-05-19T14:43:06.372Z,101483.84
2023-05-19T14:47:58.399Z,101514.16
2023-05-19T14:52:52.802Z,101507.63
2023-05-19T14:57:46.184Z,101512.88
2023-05-19T15:02:39.517Z,101519.28
2023-05-19T15:07:31.750Z,101496.63
2023-05-19T15:12:29.353Z,101501.72
2023-05-19T15:17:22.857Z,101493.28
2023-05-19T15:22:15.239Z,101493.75
2023-05-19T15:27:08.376Z,101483.94
2023-05-19T15:32:00.337Z,101493.09
2023-05-19T15:36:55.562Z,101480.72
2023-05-19T15:41:49.294Z,101474.75
2023-05-19T15:46:41.349Z,101477.22
2023-05-19T15:51:35.834Z,101461.88
2023-05-19T15:56:28.490Z,101466.66
2023-05-19T16:01:21.938Z,101469.78
2023-05-19T16:06:14.783Z,101468.22
2023-05-19T16:11:06.705Z,101455.38
2023-05-19T16:15:59.795Z,101466.88
2023-05-19T16:20:54.952Z,101457.28
2023-05-19T16:25:47.861Z,101449.78
2023-05-19T16:30:41.597Z,101444.72
2023-05-19T16:35:38.878Z,101434.22
2023-05-19T16:40:33.026Z,101438.53
2023-05-19T16:45:26.700Z,101431.06
2023-05-19T16:50:21.183Z,101431.06
2023-05-19T16:55:19.886Z,101431.03
2023-05-19T17:00:12.305Z,101430.75
2023-05-19T17:05:05.220Z,101423.28
2023-05-19T17:09:58.474Z,101389.06
2023-05-19T17:14:52.800Z,101424.38
2023-05-19T17:19:45.295Z,101424.13
2023-05-19T17:24:39.498Z,101428.41
2023-05-19T17:29:38.027Z,101435.38
2023-05-19T17:34:36.044Z,101449.78
2023-05-19T17:39:29.954Z,101452.84
2023-05-19T17:44:22.650Z,101445.19
2023-05-19T17:49:17.186Z,101449.63
2023-05-19T18:00:03.899Z,101459.13
2023-05-19T18:38:17.698Z,101490.06
2023-05-19T18:48:47.925Z,101484.34
2023-05-19T19:16:37.243Z,101515.78
2023-05-19T19:27:16.645Z,101524.97
2023-05-19T19:38:33.681Z,101542.06
2023-05-19T19:44:00.922Z,101549.25
2023-05-19T19:54:50.837Z,101551.47
2023-05-19T19:59:46.002Z,101442.72
2023-05-19T20:04:49.317Z,101556.31
2023-05-19T20:10:35.934Z,101557.13
2023-05-19T20:34:01.870Z,101396.94
2023-05-19T20:39:40.587Z,101549.72
2023-05-19T20:50:51.783Z,101485.09
2023-05-19T21:12:25.698Z,101598.81
2023-05-19T21:17:21.865Z,101595.84
2023-05-19T21:22:18.067Z,101610.16
2023-05-19T21:27:12.776Z,101562.34
2023-05-19T21:32:13.491Z,101606.91
2023-05-19T21:37:11.801Z,101608.09
2023-05-19T21:42:12.709Z,101610.34
2023-05-19T21:47:04.988Z,101596.75
2023-05-19T21:51:57.992Z,101519.00
2023-05-19T21:56:57.955Z,101569.19
2023-05-19T22:02:01.166Z,101613.47
2023-05-19T22:06:55.474Z,101573.94
2023-05-19T22:23:59.147Z,101617.09
2023-05-19T22:29:00.283Z,101594.06
2023-05-19T22:39:13.637Z,101616.84
2023-05-19T22:44:34.910Z,101603.44
2023-05-19T22:49:49.809Z,101574.41
2023-05-19T22:54:49.185Z,101608.31
2023-05-19T23:16:37.630Z,101618.28
2023-05-19T23:21:55.373Z,101568.66
2023-05-19T23:42:44.929Z,101596.28
2023-05-19T23:53:21.907Z,101475.19
2023-05-19T23:58:20.433Z,101569.59
